Kitty C — 2EIQ6 — position and weather

sailwx.info

Track history (hours):
 
Tides and Currents Weather Stations Pressure Air Temp Water Temp Dewpoint Dewpoint Depression Visibility Wind Speed Wind Dir Waves Ship Positions

Kitty C

Last reported at 2017-Mar-26 14:16 UTC. Time now 2017-Mar-27 00:46 UTC.
Position N 43°35' W 005°40'.

Length 106 m; draft 6.5 m.

Type: Cargo ship. MMSI: 235085464.

Date/timePositionNaut miles runAvg speedWind from/ knotsBaromVisibWave heightAir tempDewpointWater temp
2017-Mar-26 14:16N 43°35' W 005°40'1 0.9
2017-Mar-26 13:29N 43°35' W 005°41'0 0.0
2017-Mar-26 12:29N 43°35' W 005°41'0 0.0
2017-Mar-26 11:29N 43°35' W 005°41'0 0.0
2017-Mar-26 10:29N 43°35' W 005°41'0 0.0
2017-Mar-26 09:23N 43°35' W 005°41'0 0.0
2017-Mar-26 08:29N 43°35' W 005°41'0 0.0
2017-Mar-26 07:29N 43°35' W 005°41'0 0.0
2017-Mar-26 06:29N 43°35' W 005°41'0 0.0
2017-Mar-26 05:29N 43°35' W 005°41'0 0.0
2017-Mar-26 04:29N 43°35' W 005°41'0 0.0
2017-Mar-26 03:29N 43°35' W 005°41'0 0.0
2017-Mar-26 02:29N 43°35' W 005°41'0 0.0
2017-Mar-26 01:29N 43°35' W 005°41'0 0.0
2017-Mar-25 20:05N 43°35' W 005°41'0 0.0
2017-Mar-25 19:29N 43°35' W 005°41'0 0.0
2017-Mar-25 18:29N 43°35' W 005°41'0 0.0
2017-Mar-25 17:29N 43°35' W 005°41'0 0.0
2017-Mar-25 15:29N 43°35' W 005°41'0 0.0
2017-Mar-25 14:29N 43°35' W 005°41'0 0.0
2017-Mar-25 13:29N 43°35' W 005°41'0 0.0
2017-Mar-25 12:33N 43°35' W 005°41'2 1.7
2017-Mar-25 11:33N 43°36' W 005°39'0 0.1
2017-Mar-25 10:33N 43°36' W 005°39'0 0.0
2017-Mar-25 09:33N 43°36' W 005°39'0 0.1
2017-Mar-25 08:33N 43°36' W 005°39'0 0.1
2017-Mar-25 07:33N 43°36' W 005°39'0 0.1
2017-Mar-25 06:33N 43°36' W 005°39'0 0.0
2017-Mar-25 05:33N 43°36' W 005°39'0 0.1
2017-Mar-25 04:33N 43°36' W 005°39'0 0.1
2017-Mar-25 03:27N 43°36' W 005°39'0 0.1
2017-Mar-25 02:33N 43°36' W 005°39'0 0.0
2017-Mar-25 01:33N 43°36' W 005°39'0 0.0
2017-Mar-24 21:22N 43°36' W 005°39'6 7.8
2017-Mar-24 20:33N 43°42' W 005°40'267 9.9
2017-Mar-23 17:33N 48°09' W 005°27'1110.9
2017-Mar-23 16:33N 48°20' W 005°27'1110.9
2017-Mar-23 15:33N 48°30' W 005°26'1010.3
2017-Mar-23 14:33N 48°38' W 005°15'9 9.3
2017-Mar-23 13:33N 48°44' W 005°04'9 9.1
2017-Mar-23 12:33N 48°48' W 004°52'  
2017-Mar-20 07:30N 48°39' W 002°01'0 0.0
2017-Mar-20 01:18N 48°39' W 002°01'0 0.0
2017-Mar-20 00:33N 48°39' W 002°01'0 0.0
2017-Mar-19 12:33N 48°39' W 002°01'0 0.0
2017-Mar-19 11:18N 48°39' W 002°01'0 0.1
2017-Mar-19 07:06N 48°39' W 002°02'5 8.0
2017-Mar-19 06:32N 48°42' W 002°07'1010.4
2017-Mar-19 05:33N 48°47' W 002°20'11 9.6
2017-Mar-19 04:25N 48°52' W 002°35'8 8.8
2017-Mar-19 03:33N 48°55' W 002°45'8 7.3
2017-Mar-19 02:32N 48°59' W 002°55'7 6.9
2017-Mar-19 01:28N 48°60' W 003°06'18 3.3
2017-Mar-18 20:08N 48°58' W 003°33'43 9.3
2017-Mar-18 15:32N 48°54' W 004°38'8 8.3
2017-Mar-18 14:33N 48°54' W 004°51'8 7.8
2017-Mar-18 13:33N 48°53' W 005°03'8 7.8
2017-Mar-18 12:33N 48°52' W 005°14'8 8.1
2017-Mar-18 11:33N 48°50' W 005°26'8 7.7
2017-Mar-18 10:34N 48°46' W 005°36'15 7.7
2017-Mar-18 08:33N 48°32' W 005°47'8 8.0
2017-Mar-18 07:34N 48°25' W 005°52'8 8.4
2017-Mar-18 06:33N 48°18' W 005°58'9 8.8
2017-Mar-18 05:33N 48°10' W 006°04'9 8.8
2017-Mar-18 04:33N 48°02' W 006°10'  
Track history (hours):
 
Tides and Currents Weather Stations Pressure Air Temp Water Temp Dewpoint Dewpoint Depression Visibility Wind Speed Wind Dir Waves Ship Positions

Kitty C

Last reported at 2017-Mar-26 14:16 UTC. Time now 2017-Mar-27 00:46 UTC.
Position N 43°35' W 005°40'.

Length 106 m; draft 6.5 m.

Type: Cargo ship. MMSI: 235085464.

Date/timePositionNaut miles runAvg speedWind from/ knotsBaromVisibWave heightAir tempDewpointWater temp
2017-Mar-26 14:16N 43°35' W 005°40'1 0.9
2017-Mar-26 13:29N 43°35' W 005°41'0 0.0
2017-Mar-26 12:29N 43°35' W 005°41'0 0.0
2017-Mar-26 11:29N 43°35' W 005°41'0 0.0
2017-Mar-26 10:29N 43°35' W 005°41'0 0.0
2017-Mar-26 09:23N 43°35' W 005°41'0 0.0
2017-Mar-26 08:29N 43°35' W 005°41'0 0.0
2017-Mar-26 07:29N 43°35' W 005°41'0 0.0
2017-Mar-26 06:29N 43°35' W 005°41'0 0.0
2017-Mar-26 05:29N 43°35' W 005°41'0 0.0
2017-Mar-26 04:29N 43°35' W 005°41'0 0.0
2017-Mar-26 03:29N 43°35' W 005°41'0 0.0
2017-Mar-26 02:29N 43°35' W 005°41'0 0.0
2017-Mar-26 01:29N 43°35' W 005°41'0 0.0
2017-Mar-25 20:05N 43°35' W 005°41'0 0.0
2017-Mar-25 19:29N 43°35' W 005°41'0 0.0
2017-Mar-25 18:29N 43°35' W 005°41'0 0.0
2017-Mar-25 17:29N 43°35' W 005°41'0 0.0
2017-Mar-25 15:29N 43°35' W 005°41'0 0.0
2017-Mar-25 14:29N 43°35' W 005°41'0 0.0
2017-Mar-25 13:29N 43°35' W 005°41'0 0.0
2017-Mar-25 12:33N 43°35' W 005°41'2 1.7
2017-Mar-25 11:33N 43°36' W 005°39'0 0.1
2017-Mar-25 10:33N 43°36' W 005°39'0 0.0
2017-Mar-25 09:33N 43°36' W 005°39'0 0.1
2017-Mar-25 08:33N 43°36' W 005°39'0 0.1
2017-Mar-25 07:33N 43°36' W 005°39'0 0.1
2017-Mar-25 06:33N 43°36' W 005°39'0 0.0
2017-Mar-25 05:33N 43°36' W 005°39'0 0.1
2017-Mar-25 04:33N 43°36' W 005°39'0 0.1
2017-Mar-25 03:27N 43°36' W 005°39'0 0.1
2017-Mar-25 02:33N 43°36' W 005°39'0 0.0
2017-Mar-25 01:33N 43°36' W 005°39'0 0.0
2017-Mar-24 21:22N 43°36' W 005°39'6 7.8
2017-Mar-24 20:33N 43°42' W 005°40'267 9.9
2017-Mar-23 17:33N 48°09' W 005°27'1110.9
2017-Mar-23 16:33N 48°20' W 005°27'1110.9
2017-Mar-23 15:33N 48°30' W 005°26'1010.3
2017-Mar-23 14:33N 48°38' W 005°15'9 9.3
2017-Mar-23 13:33N 48°44' W 005°04'9 9.1
2017-Mar-23 12:33N 48°48' W 004°52'  
2017-Mar-20 07:30N 48°39' W 002°01'0 0.0
2017-Mar-20 01:18N 48°39' W 002°01'0 0.0
2017-Mar-20 00:33N 48°39' W 002°01'0 0.0
2017-Mar-19 12:33N 48°39' W 002°01'0 0.0
2017-Mar-19 11:18N 48°39' W 002°01'0 0.1
2017-Mar-19 07:06N 48°39' W 002°02'5 8.0
2017-Mar-19 06:32N 48°42' W 002°07'1010.4
2017-Mar-19 05:33N 48°47' W 002°20'11 9.6
2017-Mar-19 04:25N 48°52' W 002°35'8 8.8
2017-Mar-19 03:33N 48°55' W 002°45'8 7.3
2017-Mar-19 02:32N 48°59' W 002°55'7 6.9
2017-Mar-19 01:28N 48°60' W 003°06'18 3.3
2017-Mar-18 20:08N 48°58' W 003°33'43 9.3
2017-Mar-18 15:32N 48°54' W 004°38'8 8.3
2017-Mar-18 14:33N 48°54' W 004°51'8 7.8
2017-Mar-18 13:33N 48°53' W 005°03'8 7.8
2017-Mar-18 12:33N 48°52' W 005°14'8 8.1
2017-Mar-18 11:33N 48°50' W 005°26'8 7.7
2017-Mar-18 10:34N 48°46' W 005°36'15 7.7
2017-Mar-18 08:33N 48°32' W 005°47'8 8.0
2017-Mar-18 07:34N 48°25' W 005°52'8 8.4
2017-Mar-18 06:33N 48°18' W 005°58'9 8.8
2017-Mar-18 05:33N 48°10' W 006°04'9 8.8
2017-Mar-18 04:33N 48°02' W 006°10'  

Dump ship's entire track history